Time;durP1;ratioP1;P1;durP2;ratioP2;P2;SDS_P1;SDS_P2;PMS_P1;PMS_P2;Temp;Humidity;BMP_temperature;BMP_pressure;BME280_temperature;BME280_humidity;BME280_pressure;Samples;Min_cycle;Max_cycle;Signal;HPM_P1;HPM_P2
2021/01/19 00:01:49;;;;;;;;;;;;;;;4.69;99.64;100987.88;5107609;28;20275;-75
2021/01/19 00:04:14;;;;;;;;;;;;;;;4.69;99.59;100985.13;5100244;27;19973;-75
2021/01/19 00:06:39;;;;;;;;;;;;;;;4.72;99.90;100978.31;5118151;27;19915;-75
2021/01/19 00:09:05;;;;;;;;;;;;;;;4.70;99.90;100969.47;5115557;27;19919;-75
2021/01/19 00:11:30;;;;;;;;;;;;;;;4.72;99.94;100971.97;5098104;28;19916;-75
2021/01/19 00:13:56;;;;;;;;;;;;;;;4.71;99.92;100971.16;5100168;28;19920;-75
2021/01/19 00:16:21;;;;;;;;;;;;;;;4.72;100.00;100966.47;5100985;28;19920;-75
2021/01/19 00:18:46;;;;;;;;;;;;;;;4.73;99.92;100966.22;5097688;28;20388;-75
2021/01/19 00:21:12;;;;;;;;;;;;;;;4.73;99.93;100959.88;5140761;27;19923;-74
2021/01/19 00:23:37;;;;;;;;;;;;;;;4.75;99.86;100949.47;5116687;27;19959;-75
2021/01/19 00:26:03;;;;;;;;;;;;;;;4.76;99.95;100953.88;5082899;28;19998;-74
2021/01/19 00:28:28;;;;;;;;;;;;;;;4.75;99.87;100950.31;5115897;28;20387;-74
2021/01/19 00:30:54;;;;;;;;;;;;;;;4.77;100.00;100939.88;5143284;27;19916;-74
2021/01/19 00:33:19;;;;;;;;;;;;;;;4.79;99.95;100936.88;5115954;27;19916;-74
2021/01/19 00:35:44;;;;;;;;;;;;;;;4.78;100.00;100926.97;5107267;28;19915;-74
2021/01/19 00:38:10;;;;;;;;;;;;;;;4.81;100.00;100918.22;5116844;27;19942;-74
2021/01/19 00:40:35;;;;;;;;;;;;;;;4.79;100.00;100912.13;5117800;28;19915;-74
2021/01/19 00:43:00;;;;;;;;;;;;;;;4.80;100.00;100909.13;5115161;28;19922;-74
2021/01/19 00:45:26;;;;;;;;;;;;;;;4.83;100.00;100907.81;5114963;28;20291;-74
2021/01/19 00:47:51;;;;;;;;;;;;;;;4.83;100.00;100907.81;5099394;28;19955;-74
2021/01/19 00:50:17;;;;;;;;;;;;;;;4.83;100.00;100894.03;5116930;28;19915;-74
2021/01/19 00:52:42;;;;;;;;;;;;;;;4.85;100.00;100883.63;5081097;28;19926;-74
2021/01/19 00:55:08;;;;;;;;;;;;;;;4.86;100.00;100885.28;5139787;27;20408;-74
2021/01/19 00:57:33;;;;;;;;;;;;;;;4.88;100.00;100878.47;5109037;28;20318;-74
2021/01/19 00:59:58;;;;;;;;;;;;;;;4.87;100.00;100874.00;5100715;28;19920;-74
2021/01/19 01:02:24;;;;;;;;;;;;;;;4.89;100.00;100877.38;5113508;28;19912;-74
2021/01/19 01:04:49;;;;;;;;;;;;;;;4.89;100.00;100868.28;5112671;28;20298;-74
2021/01/19 01:07:15;;;;;;;;;;;;;;;4.90;100.00;100869.94;5120549;27;19938;-74
2021/01/19 01:09:40;;;;;;;;;;;;;;;4.90;100.00;100858.94;5096945;28;20014;-74
2021/01/19 01:12:05;;;;;;;;;;;;;;;4.91;100.00;100855.13;5116644;27;19968;-74
2021/01/19 01:14:31;;;;;;;;;;;;;;;4.92;100.00;100862.28;5098007;28;19916;-74
2021/01/19 01:16:59;;;;;;;;;;;;;;;4.93;100.00;100859.28;5081762;27;19930;-74
2021/01/19 01:19:24;;;;;;;;;;;;;;;4.95;100.00;100858.19;5103649;27;20383;-74
2021/01/19 01:21:50;;;;;;;;;;;;;;;4.95;100.00;100852.69;5116655;27;19937;-74
2021/01/19 01:24:15;;;;;;;;;;;;;;;4.95;100.00;100852.69;5100944;27;19919;-75
2021/01/19 01:26:40;;;;;;;;;;;;;;;4.95;100.00;100845.25;5086249;27;20355;-74
2021/01/19 01:29:06;;;;;;;;;;;;;;;4.96;100.00;100852.47;5100109;28;20509;-74
2021/01/19 01:31:31;;;;;;;;;;;;;;;4.96;100.00;100855.22;5099942;27;19919;-74
2021/01/19 01:33:57;;;;;;;;;;;;;;;4.97;100.00;100837.59;5118247;27;19922;-75
2021/01/19 01:36:22;;;;;;;;;;;;;;;4.98;100.00;100838.44;5135065;27;19927;-75
2021/01/19 01:38:48;;;;;;;;;;;;;;;5.00;100.00;100836.28;5135408;27;20065;-75
2021/01/19 01:41:14;;;;;;;;;;;;;;;5.02;100.00;100832.19;5115135;27;19916;-75
2021/01/19 01:43:39;;;;;;;;;;;;;;;5.01;100.00;100838.75;5083323;27;19946;-75
2021/01/19 01:46:05;;;;;;;;;;;;;;;5.01;100.00;100825.00;5117151;27;19916;-75
2021/01/19 01:48:31;;;;;;;;;;;;;;;5.04;100.00;100826.41;5099545;28;19943;-75
2021/01/19 01:50:56;;;;;;;;;;;;;;;5.04;100.00;100818.16;5098671;27;19920;-75
2021/01/19 01:53:21;;;;;;;;;;;;;;;5.05;100.00;100830.84;5115865;27;19915;-75
2021/01/19 01:55:47;;;;;;;;;;;;;;;5.06;100.00;100824.25;5114974;28;19995;-74
2021/01/19 01:58:12;;;;;;;;;;;;;;;5.05;100.00;100815.16;5082810;28;20010;-74
2021/01/19 02:00:37;;;;;;;;;;;;;;;5.06;100.00;100819.56;5097368;27;20320;-74
2021/01/19 02:03:03;;;;;;;;;;;;;;;5.05;100.00;100804.16;5115725;28;19960;-74
2021/01/19 02:05:29;;;;;;;;;;;;;;;5.06;100.00;100822.31;5118519;28;19915;-75
2021/01/19 02:08:09;;;;;;;;;;;;;;;5.06;100.00;100804.97;5109846;28;19919;-74
2021/01/19 02:10:53;;;;;;;;;;;;;;;5.07;100.00;100813.00;5116656;28;19968;-74
2021/01/19 02:13:23;;;;;;;;;;;;;;;5.08;100.00;100795.41;5097163;28;19947;-75
2021/01/19 02:15:50;;;;;;;;;;;;;;;5.08;100.00;100802.81;5100929;28;19923;-75
2021/01/19 02:18:33;;;;;;;;;;;;;;;5.08;100.00;100792.63;5099122;28;19915;-75
2021/01/19 02:21:17;;;;;;;;;;;;;;;5.10;100.00;100787.72;5138392;28;19915;-75
2021/01/19 02:24:03;;;;;;;;;;;;;;;5.10;100.00;100781.38;5117951;27;20367;-75
2021/01/19 02:26:28;;;;;;;;;;;;;;;5.11;100.00;100789.38;5097739;28;20014;-75
2021/01/19 02:28:56;;;;;;;;;;;;;;;5.12;100.00;100785.53;5115670;28;19953;-74
2021/01/19 02:31:21;;;;;;;;;;;;;;;5.12;100.00;100784.69;5118074;28;19959;-74
2021/01/19 02:34:06;;;;;;;;;;;;;;;5.14;100.00;100775.09;5119640;28;19916;-74
2021/01/19 02:36:31;;;;;;;;;;;;;;;5.14;100.00;100777.88;5117521;28;19923;-74
2021/01/19 02:38:57;;;;;;;;;;;;;;;5.15;100.00;100768.53;5116285;28;20283;-74
2021/01/19 02:41:23;;;;;;;;;;;;;;;5.15;100.00;100773.19;5098603;28;19915;-74
2021/01/19 02:43:56;;;;;;;;;;;;;;;5.18;100.00;100769.91;5101323;27;19931;-75
2021/01/19 02:46:22;;;;;;;;;;;;;;;5.18;100.00;100763.59;5109305;28;20348;-74
2021/01/19 02:48:47;;;;;;;;;;;;;;;5.20;100.00;100764.19;5114092;28;19922;-74
2021/01/19 02:51:13;;;;;;;;;;;;;;;5.20;100.00;100759.50;5115532;28;19950;-74
2021/01/19 02:53:38;;;;;;;;;;;;;;;5.22;100.00;100764.78;5117700;27;19916;-75
2021/01/19 02:56:04;;;;;;;;;;;;;;;5.23;100.00;100749.91;5095157;28;19927;-75
2021/01/19 02:58:48;;;;;;;;;;;;;;;5.23;100.00;100758.16;5125992;27;20291;-75
2021/01/19 03:01:18;;;;;;;;;;;;;;;5.24;100.00;100748.84;5096721;28;20016;-74
2021/01/19 03:03:43;;;;;;;;;;;;;;;5.24;100.00;100743.34;5102316;28;19966;-75
2021/01/19 03:06:15;;;;;;;;;;;;;;;5.25;100.00;100737.56;5082690;28;20286;-75
2021/01/19 03:08:41;;;;;;;;;;;;;;;5.26;100.00;100735.63;5094705;28;20414;-74
2021/01/19 03:11:06;;;;;;;;;;;;;;;5.25;100.00;100737.56;5095771;28;19928;-75
2021/01/19 03:13:31;;;;;;;;;;;;;;;5.26;100.00;100735.63;5115544;28;20249;-74
2021/01/19 03:16:10;;;;;;;;;;;;;;;5.27;100.00;100726.28;5101077;28;20533;-74
2021/01/19 03:18:35;;;;;;;;;;;;;;;5.27;100.00;100718.88;5135702;28;19938;-75
2021/01/19 03:21:04;;;;;;;;;;;;;;;5.28;100.00;100723.28;5081438;28;20002;-74
2021/01/19 03:23:30;;;;;;;;;;;;;;;5.30;100.00;100710.09;5110425;27;20010;-75
2021/01/19 03:25:55;;;;;;;;;;;;;;;5.30;100.00;100714.78;5109216;27;19961;-75
2021/01/19 03:28:21;;;;;;;;;;;;;;;5.31;100.00;100710.91;5119157;27;19919;-75
2021/01/19 03:30:46;;;;;;;;;;;;;;;5.31;100.00;100706.25;5119972;27;20439;-74
2021/01/19 03:33:11;;;;;;;;;;;;;;;5.34;100.00;100700.22;5135311;27;19915;-75
2021/01/19 03:35:39;;;;;;;;;;;;;;;5.34;100.00;100699.38;5089125;27;19922;-75
2021/01/19 03:38:10;;;;;;;;;;;;;;;5.34;100.00;100711.22;5121055;27;19924;-75
2021/01/19 03:40:36;;;;;;;;;;;;;;;5.35;100.00;100701.06;5101083;27;20439;-74
2021/01/19 03:43:01;;;;;;;;;;;;;;;5.36;100.00;100697.22;5102955;27;19922;-75
2021/01/19 03:45:27;;;;;;;;;;;;;;;5.34;100.00;100702.16;5104785;27;19969;-75
2021/01/19 03:47:53;;;;;;;;;;;;;;;5.35;100.00;100703.84;5094246;28;20379;-75
2021/01/19 03:50:18;;;;;;;;;;;;;;;5.37;100.00;100694.19;5109457;28;19969;-75
2021/01/19 03:52:44;;;;;;;;;;;;;;;5.38;100.00;100695.06;5118163;27;20352;-75
2021/01/19 03:55:09;;;;;;;;;;;;;;;5.38;100.00;100698.63;5119339;27;19916;-75
2021/01/19 03:57:35;;;;;;;;;;;;;;;5.39;100.00;100699.47;5121312;27;20387;-75
2021/01/19 04:00:00;;;;;;;;;;;;;;;5.41;100.00;100691.78;5104498;27;19968;-75
2021/01/19 04:02:26;;;;;;;;;;;;;;;5.42;100.00;100689.84;5131870;27;20009;-75
2021/01/19 04:04:53;;;;;;;;;;;;;;;5.42;100.00;100679.66;5103582;27;19919;-75
2021/01/19 04:07:18;;;;;;;;;;;;;;;5.44;100.00;100688.53;5097053;28;20273;-74
2021/01/19 04:09:44;;;;;;;;;;;;;;;5.45;100.00;100687.41;5127796;27;19938;-74
2021/01/19 04:12:09;;;;;;;;;;;;;;;5.46;100.00;100679.97;5113574;28;19966;-74
2021/01/19 04:14:34;;;;;;;;;;;;;;;5.46;100.00;100675.34;5099485;28;19958;-74
2021/01/19 04:17:00;;;;;;;;;;;;;;;5.47;100.00;100676.97;5109524;28;20325;-74
2021/01/19 04:19:25;;;;;;;;;;;;;;;5.48;100.00;100670.38;5106630;28;20478;-74
2021/01/19 04:21:51;;;;;;;;;;;;;;;5.49;100.00;100669.31;5120161;27;19916;-74
2021/01/19 04:24:16;;;;;;;;;;;;;;;5.53;100.00;100667.69;5116237;27;20329;-74
2021/01/19 04:26:41;;;;;;;;;;;;;;;5.50;100.00;100670.13;5101226;28;19915;-75
2021/01/19 04:29:07;;;;;;;;;;;;;;;5.50;100.00;100659.94;5099449;28;19916;-75
2021/01/19 04:31:32;;;;;;;;;;;;;;;5.51;100.00;100642.31;5112341;28;19919;-75
2021/01/19 04:33:57;;;;;;;;;;;;;;;5.51;100.00;100656.09;5112186;27;19916;-75
2021/01/19 04:36:23;;;;;;;;;;;;;;;5.50;100.00;100648.91;5115916;28;19969;-75
2021/01/19 04:38:48;;;;;;;;;;;;;;;5.53;100.00;100642.06;5098707;28;19927;-75
2021/01/19 04:41:14;;;;;;;;;;;;;;;5.52;100.00;100638.50;5098357;28;19922;-75
2021/01/19 04:43:39;;;;;;;;;;;;;;;5.53;100.00;100631.88;5099339;28;19924;-75
2021/01/19 04:46:05;;;;;;;;;;;;;;;5.53;100.00;100633.81;5097632;28;20364;-75
2021/01/19 04:48:33;;;;;;;;;;;;;;;5.54;100.00;100636.31;5095670;28;19923;-75
2021/01/19 04:50:59;;;;;;;;;;;;;;;5.53;100.00;100631.88;5095814;28;19921;-75
2021/01/19 04:53:25;;;;;;;;;;;;;;;5.55;100.00;100634.38;5082249;28;19923;-75
2021/01/19 04:55:54;;;;;;;;;;;;;;;5.56;100.00;100630.53;5083877;28;20346;-75
2021/01/19 04:58:25;;;;;;;;;;;;;;;5.56;100.00;100628.59;5098866;28;19977;-75
2021/01/19 05:00:56;;;;;;;;;;;;;;;5.56;100.00;100619.50;5080090;28;20019;-75
2021/01/19 05:03:23;;;;;;;;;;;;;;;5.56;100.00;100625.84;5094370;28;19954;-75
2021/01/19 05:05:58;;;;;;;;;;;;;;;5.55;100.00;100617.84;5090696;28;19920;-75
2021/01/19 05:08:24;;;;;;;;;;;;;;;5.57;100.00;100619.25;5083680;28;20374;-75
2021/01/19 05:10:56;;;;;;;;;;;;;;;5.56;100.00;100620.34;5078711;28;19920;-75
2021/01/19 05:13:28;;;;;;;;;;;;;;;5.57;100.00;100626.66;5043592;28;20042;-75
2021/01/19 05:15:53;;;;;;;;;;;;;;;5.57;100.00;100624.78;5062447;28;19916;-75
2021/01/19 05:18:23;;;;;;;;;;;;;;;5.56;100.00;100617.56;5063139;28;19927;-74
2021/01/19 05:20:49;;;;;;;;;;;;;;;5.56;100.00;100625.84;5075209;28;20387;-74
2021/01/19 05:23:21;;;;;;;;;;;;;;;5.57;100.00;100619.25;5074289;28;19916;-75
2021/01/19 05:26:07;;;;;;;;;;;;;;;5.59;100.00;100610.72;5075146;28;19959;-75
2021/01/19 05:28:40;;;;;;;;;;;;;;;5.60;100.00;100612.41;5078358;28;19916;-74
2021/01/19 05:31:06;;;;;;;;;;;;;;;5.58;100.00;100596.13;5060641;28;19966;-75
2021/01/19 05:33:31;;;;;;;;;;;;;;;5.60;100.00;100582.09;5055971;28;19920;-75
2021/01/19 05:36:09;;;;;;;;;;;;;;;5.59;100.00;100586.75;5074635;28;19922;-75
2021/01/19 05:38:50;;;;;;;;;;;;;;;5.59;100.00;100586.75;5074453;28;19952;-75
2021/01/19 05:41:41;;;;;;;;;;;;;;;5.60;100.00;100580.19;5079542;28;19923;-75
2021/01/19 05:44:22;;;;;;;;;;;;;;;5.62;100.00;100579.06;5101512;28;20003;-75
2021/01/19 05:47:17;;;;;;;;;;;;;;;5.62;100.00;100579.91;5098013;28;20007;-75
2021/01/19 05:49:45;;;;;;;;;;;;;;;5.62;100.00;100582.66;5071621;28;20267;-75
2021/01/19 05:52:14;;;;;;;;;;;;;;;5.63;100.00;100586.22;5059873;28;19920;-75
2021/01/19 05:54:43;;;;;;;;;;;;;;;5.62;100.00;100579.06;5042521;28;19916;-75
2021/01/19 05:57:13;;;;;;;;;;;;;;;5.63;100.00;100586.22;5056866;28;19927;-74
2021/01/19 05:59:40;;;;;;;;;;;;;;;5.63;100.00;100581.59;5057281;28;19970;-74
2021/01/19 06:02:06;;;;;;;;;;;;;;;5.62;100.00;100579.06;5058282;28;19920;-75
2021/01/19 06:04:35;;;;;;;;;;;;;;;5.63;100.00;100589.00;5070350;28;19924;-75
2021/01/19 06:07:01;;;;;;;;;;;;;;;5.63;100.00;100575.22;5079985;28;19995;-74
2021/01/19 06:09:26;;;;;;;;;;;;;;;5.62;100.00;100581.81;5060751;28;20360;-74
2021/01/19 06:11:52;;;;;;;;;;;;;;;5.62;100.00;100581.81;5114197;28;19920;-74
2021/01/19 06:14:25;;;;;;;;;;;;;;;5.60;100.00;100582.94;5115230;28;19924;-74
2021/01/19 06:16:50;;;;;;;;;;;;;;;5.60;100.00;100571.09;5074458;28;19923;-74
2021/01/19 06:19:25;;;;;;;;;;;;;;;5.59;100.00;100570.22;5083445;28;19916;-74
2021/01/19 06:21:51;;;;;;;;;;;;;;;5.60;100.00;100571.09;5096211;28;19943;-74
2021/01/19 06:24:16;;;;;;;;;;;;;;;5.57;100.00;100569.69;5112564;28;20279;-74
2021/01/19 06:26:42;;;;;;;;;;;;;;;5.57;100.00;100569.69;5065806;28;19933;-74
2021/01/19 06:29:07;;;;;;;;;;;;;;;5.57;100.00;100569.69;5113772;28;20012;-74
2021/01/19 06:31:35;;;;;;;;;;;;;;;5.56;100.00;100570.75;5096421;28;19926;-75
2021/01/19 06:34:01;;;;;;;;;;;;;;;5.56;100.00;100570.75;5079701;28;19916;-75
2021/01/19 06:36:35;;;;;;;;;;;;;;;5.57;100.00;100580.69;5079679;28;20096;-75
2021/01/19 06:39:01;;;;;;;;;;;;;;;5.57;100.00;100586.22;5096260;28;19916;-75
2021/01/19 06:41:26;;;;;;;;;;;;;;;5.58;100.00;100589.78;5073638;28;20004;-75
2021/01/19 06:43:54;;;;;;;;;;;;;;;5.59;100.00;100585.94;5090751;28;19942;-75
2021/01/19 06:46:19;;;;;;;;;;;;;;;5.57;100.00;100586.22;5099557;28;20015;-75
2021/01/19 06:48:45;;;;;;;;;;;;;;;5.57;100.00;100583.44;5073031;28;19947;-75
2021/01/19 06:51:11;;;;;;;;;;;;;;;5.59;100.00;100577.66;5070249;28;19966;-75
2021/01/19 06:53:44;;;;;;;;;;;;;;;5.58;100.00;100585.09;5078337;28;19941;-75
2021/01/19 06:56:10;;;;;;;;;;;;;;;5.59;100.00;100583.19;5089255;28;19985;-74
2021/01/19 06:58:55;;;;;;;;;;;;;;;5.60;100.00;100580.19;5115182;28;19923;-74
2021/01/19 07:01:21;;;;;;;;;;;;;;;5.60;100.00;100580.19;5077163;28;19923;-74
2021/01/19 07:03:47;;;;;;;;;;;;;;;5.60;100.00;100574.66;5103050;28;19924;-74
2021/01/19 07:06:16;;;;;;;;;;;;;;;5.60;100.00;100577.41;5093568;28;20010;-74
2021/01/19 07:09:00;;;;;;;;;;;;;;;5.60;100.00;100566.41;5084811;28;19945;-74
2021/01/19 07:11:28;;;;;;;;;;;;;;;5.62;100.00;100557.84;5100897;28;19916;-75
2021/01/19 07:13:55;;;;;;;;;;;;;;;5.62;100.00;100566.13;5100186;28;20329;-74
2021/01/19 07:16:22;;;;;;;;;;;;;;;5.62;100.00;100562.53;5077002;28;19916;-74
2021/01/19 07:18:50;;;;;;;;;;;;;;;5.62;100.00;100562.53;5067844;28;19916;-74
2021/01/19 07:21:17;;;;;;;;;;;;;;;5.60;100.00;100565.56;5099256;28;19984;-74
2021/01/19 07:23:48;;;;;;;;;;;;;;;5.60;100.00;100566.41;5079860;28;19926;-74
2021/01/19 07:26:16;;;;;;;;;;;;;;;5.61;100.00;100564.47;5095267;28;19926;-74
2021/01/19 07:28:44;;;;;;;;;;;;;;;5.60;100.00;100566.41;5115037;28;19916;-74
2021/01/19 07:31:09;;;;;;;;;;;;;;;5.61;100.00;100553.44;5083775;28;19920;-74
2021/01/19 07:33:35;;;;;;;;;;;;;;;5.62;100.00;100552.34;5080178;28;19912;-75
2021/01/19 07:36:00;;;;;;;;;;;;;;;5.63;100.00;100554.03;5096907;28;19938;-74
2021/01/19 07:38:47;;;;;;;;;;;;;;;5.62;100.00;100546.84;5066300;28;19916;-79
2021/01/19 07:41:15;;;;;;;;;;;;;;;5.63;100.00;100542.16;5106668;28;20284;-74
2021/01/19 07:43:40;;;;;;;;;;;;;;;5.61;100.00;100539.66;5084877;28;19930;-75
2021/01/19 07:46:22;;;;;;;;;;;;;;;5.59;100.00;100548.19;5077770;28;19919;-74
2021/01/19 07:49:04;;;;;;;;;;;;;;;5.59;100.00;100542.66;5065484;28;19947;-75
2021/01/19 07:51:47;;;;;;;;;;;;;;;5.58;100.00;100546.53;5084061;28;19926;-75
2021/01/19 07:54:13;;;;;;;;;;;;;;;5.59;100.00;100558.38;5091302;28;19938;-75
2021/01/19 07:57:11;;;;;;;;;;;;;;;5.58;100.00;100546.53;5099394;28;20334;-76
2021/01/19 07:59:38;;;;;;;;;;;;;;;5.59;100.00;100553.69;5072289;28;19919;-75
2021/01/19 08:02:04;;;;;;;;;;;;;;;5.60;100.00;100549.88;5097974;28;19918;-75
2021/01/19 08:04:36;;;;;;;;;;;;;;;5.60;100.00;100544.34;5082929;28;19923;-76
2021/01/19 08:07:21;;;;;;;;;;;;;;;5.62;100.00;100534.97;5083288;28;19916;-76
2021/01/19 08:09:46;;;;;;;;;;;;;;;5.63;100.00;100537.50;5058849;28;20376;-75
2021/01/19 08:12:18;;;;;;;;;;;;;;;5.63;100.00;100534.75;5094216;28;19934;-75
2021/01/19 08:14:44;;;;;;;;;;;;;;;5.63;100.00;100525.63;5082111;28;19915;-75
2021/01/19 08:17:09;;;;;;;;;;;;;;;5.63;100.00;100520.97;5100066;28;19920;-75
2021/01/19 08:19:42;;;;;;;;;;;;;;;5.65;100.00;100527.03;5066949;28;19937;-75
2021/01/19 08:22:07;;;;;;;;;;;;;;;5.63;100.00;100514.59;5079156;28;20288;-75
2021/01/19 08:24:33;;;;;;;;;;;;;;;5.65;100.00;100523.44;5077247;28;19927;-75
2021/01/19 08:26:58;;;;;;;;;;;;;;;5.65;100.00;100524.25;5108629;28;19923;-75
2021/01/19 08:29:24;;;;;;;;;;;;;;;5.67;100.00;100516.56;5108536;28;19938;-75
2021/01/19 08:31:52;;;;;;;;;;;;;;;5.69;100.00;100521.84;5080107;28;19911;-75
2021/01/19 08:34:27;;;;;;;;;;;;;;;5.68;100.00;100522.91;5097527;28;19968;-75
2021/01/19 08:36:58;;;;;;;;;;;;;;;5.69;100.00;100519.09;5082998;28;19962;-75
2021/01/19 08:39:23;;;;;;;;;;;;;;;5.69;100.00;100502.56;5083554;28;19920;-75
2021/01/19 08:41:49;;;;;;;;;;;;;;;5.70;100.00;100499.53;5082431;28;20002;-75
2021/01/19 08:44:15;;;;;;;;;;;;;;;5.70;100.00;100499.53;5080001;28;20364;-75
2021/01/19 08:46:40;;;;;;;;;;;;;;;5.69;100.00;100495.13;5096783;28;20073;-75
2021/01/19 08:49:06;;;;;;;;;;;;;;;5.71;100.00;100505.84;5083786;28;19911;-75
2021/01/19 08:51:32;;;;;;;;;;;;;;;5.72;100.00;100502.84;5080955;28;19965;-75
2021/01/19 08:53:57;;;;;;;;;;;;;;;5.72;100.00;100491.00;5080438;28;19915;-75
2021/01/19 08:56:23;;;;;;;;;;;;;;;5.74;100.00;100499.81;5097014;28;19924;-75
2021/01/19 08:58:49;;;;;;;;;;;;;;;5.74;100.00;100492.41;5099383;28;19938;-75
2021/01/19 09:01:14;;;;;;;;;;;;;;;5.75;100.00;100490.47;5064080;28;20463;-75
2021/01/19 09:03:40;;;;;;;;;;;;;;;5.76;100.00;100492.13;5078483;28;19916;-75
2021/01/19 09:06:14;;;;;;;;;;;;;;;5.77;100.00;100480.84;5097111;28;19916;-75
2021/01/19 09:08:45;;;;;;;;;;;;;;;5.78;100.00;100479.75;5090842;28;19920;-75
2021/01/19 09:11:13;;;;;;;;;;;;;;;5.80;100.00;100483.09;5064950;28;19962;-76
2021/01/19 09:13:41;;;;;;;;;;;;;;;5.80;100.00;100483.09;5096373;28;19924;-75
2021/01/19 09:16:06;;;;;;;;;;;;;;;5.83;100.00;100478.97;5092901;28;19923;-75
2021/01/19 09:18:35;;;;;;;;;;;;;;;5.85;100.00;100479.53;5097922;28;20361;-75
2021/01/19 09:21:10;;;;;;;;;;;;;;;5.85;100.00;100484.19;5080950;28;19915;-75
2021/01/19 09:23:41;;;;;;;;;;;;;;;5.87;100.00;100493.88;5099421;28;19974;-75
2021/01/19 09:26:07;;;;;;;;;;;;;;;5.89;100.00;100475.16;5095471;28;20356;-74
2021/01/19 09:28:33;;;;;;;;;;;;;;;5.88;100.00;100476.25;5063740;28;19920;-75
2021/01/19 09:31:09;;;;;;;;;;;;;;;5.91;100.00;100474.91;5082683;28;19951;-75
2021/01/19 09:33:34;;;;;;;;;;;;;;;5.91;100.00;100470.22;5096819;28;20303;-75
2021/01/19 09:36:04;;;;;;;;;;;;;;;5.92;100.00;100455.31;5081719;28;19916;-76
2021/01/19 09:38:41;;;;;;;;;;;;;;;5.93;100.00;100468.03;5056286;28;19924;-75
2021/01/19 09:41:06;;;;;;;;;;;;;;;5.94;100.00;100447.66;5098497;28;20391;-75
2021/01/19 09:43:39;;;;;;;;;;;;;;;5.95;100.00;100451.25;5078855;28;19931;-76
2021/01/19 09:46:19;;;;;;;;;;;;;;;5.98;100.00;100459.81;5067079;28;19923;-75
2021/01/19 09:48:45;;;;;;;;;;;;;;;5.99;100.00;100457.88;5105673;28;19916;-75
2021/01/19 09:51:10;;;;;;;;;;;;;;;6.01;100.00;100464.78;5080381;28;19973;-75
2021/01/19 09:53:39;;;;;;;;;;;;;;;6.04;100.00;100467.03;5099575;28;19915;-75
2021/01/19 09:56:15;;;;;;;;;;;;;;;6.07;100.00;100459.31;5082582;28;19915;-76
2021/01/19 09:58:43;;;;;;;;;;;;;;;6.10;100.00;100462.41;5060941;28;19984;-75
2021/01/19 10:01:23;;;;;;;;;;;;;;;6.15;100.00;100467.09;5081441;28;19922;-75
2021/01/19 10:03:56;;;;;;;;;;;;;;;6.18;100.00;100461.88;5080482;28;20368;-75
2021/01/19 10:06:25;;;;;;;;;;;;;;;6.22;100.00;100465.78;5054919;28;20355;-75
2021/01/19 10:08:56;;;;;;;;;;;;;;;6.24;100.00;100466.34;5095118;28;19955;-76
2021/01/19 10:11:34;;;;;;;;;;;;;;;6.29;100.00;100467.47;5077745;28;19951;-75
2021/01/19 10:14:16;;;;;;;;;;;;;;;6.30;100.00;100456.16;5079665;28;19920;-75
2021/01/19 10:16:46;;;;;;;;;;;;;;;6.37;100.00;100465.03;5063704;28;20371;-75
2021/01/19 10:19:21;;;;;;;;;;;;;;;6.39;100.00;100468.34;5104854;28;20013;-76
2021/01/19 10:21:55;;;;;;;;;;;;;;;6.43;100.00;100466.69;5096651;28;19994;-75
2021/01/19 10:24:21;;;;;;;;;;;;;;;6.47;100.00;100461.50;5063128;28;20283;-75
2021/01/19 10:26:59;;;;;;;;;;;;;;;6.48;100.00;100461.22;5080672;28;19962;-75
2021/01/19 10:29:27;;;;;;;;;;;;;;;6.50;100.00;100463.72;5090200;28;19916;-75
2021/01/19 10:32:04;;;;;;;;;;;;;;;6.52;100.00;100439.47;5096948;28;19916;-76
2021/01/19 10:34:35;;;;;;;;;;;;;;;6.54;100.00;100445.50;5072928;28;19912;-75
2021/01/19 10:37:04;;;;;;;;;;;;;;;6.54;99.86;100451.03;5084574;28;19949;-75
2021/01/19 10:39:30;;;;;;;;;;;;;;;6.55;99.92;100443.63;5102065;28;20367;-75
2021/01/19 10:41:56;;;;;;;;;;;;;;;6.55;100.00;100441.69;5081809;28;20423;-75
2021/01/19 10:44:23;;;;;;;;;;;;;;;6.56;99.95;100434.22;5065885;28;20024;-75
2021/01/19 10:46:56;;;;;;;;;;;;;;;6.56;99.84;100428.72;5099921;28;19915;-75
2021/01/19 10:49:28;;;;;;;;;;;;;;;6.58;99.75;100426.50;5115951;28;19981;-76
2021/01/19 10:51:57;;;;;;;;;;;;;;;6.58;99.75;100429.28;5067659;28;19955;-75
2021/01/19 10:54:51;;;;;;;;;;;;;;;6.60;99.87;100416.00;5080117;28;19956;-76
2021/01/19 10:57:36;;;;;;;;;;;;;;;6.61;99.57;100410.25;5121718;27;19916;-76
2021/01/19 11:00:05;;;;;;;;;;;;;;;6.62;100.00;100397.28;5068320;28;19919;-75
2021/01/19 11:02:30;;;;;;;;;;;;;;;6.61;99.61;100404.72;5070147;28;20356;-75
2021/01/19 11:04:56;;;;;;;;;;;;;;;6.64;99.93;100398.66;5110786;28;19985;-75
2021/01/19 11:07:21;;;;;;;;;;;;;;;6.65;99.81;100402.25;5081371;28;19920;-75
2021/01/19 11:09:47;;;;;;;;;;;;;;;6.68;99.94;100405.28;5111973;28;19955;-75
2021/01/19 11:12:16;;;;;;;;;;;;;;;6.69;100.00;100400.63;5099702;28;19969;-75
2021/01/19 11:14:42;;;;;;;;;;;;;;;6.71;99.86;100392.88;5085048;28;19990;-74
2021/01/19 11:17:07;;;;;;;;;;;;;;;6.72;100.00;100389.84;5077662;28;20398;-75
2021/01/19 11:19:33;;;;;;;;;;;;;;;6.76;99.99;100373.56;5076593;28;19938;-75
2021/01/19 11:22:01;;;;;;;;;;;;;;;6.78;99.93;100368.63;5094031;28;19915;-75
2021/01/19 11:24:26;;;;;;;;;;;;;;;6.80;99.62;100363.66;5065860;28;20356;-75
2021/01/19 11:26:52;;;;;;;;;;;;;;;6.83;99.94;100368.63;5101383;28;20022;-75
2021/01/19 11:29:17;;;;;;;;;;;;;;;6.86;99.55;100351.53;5097573;28;19950;-75
2021/01/19 11:31:45;;;;;;;;;;;;;;;6.91;99.06;100342.44;5099281;28;19946;-75
2021/01/19 11:34:12;;;;;;;;;;;;;;;6.91;99.05;100337.72;5069135;28;20356;-75
2021/01/19 11:36:38;;;;;;;;;;;;;;;6.97;98.87;100326.69;5078821;28;19931;-75
2021/01/19 11:39:04;;;;;;;;;;;;;;;6.99;98.82;100322.53;5096754;28;19916;-75
2021/01/19 11:41:29;;;;;;;;;;;;;;;7.00;98.68;100318.69;5098115;28;19920;-75
2021/01/19 11:43:57;;;;;;;;;;;;;;;7.02;98.58;100313.72;5117966;28;19927;-75
2021/01/19 11:46:23;;;;;;;;;;;;;;;7.05;98.40;100309.56;5083634;28;19915;-75
2021/01/19 11:48:49;;;;;;;;;;;;;;;7.05;98.38;100304.03;5084293;28;19920;-75
2021/01/19 11:51:15;;;;;;;;;;;;;;;7.08;98.28;100303.50;5080919;28;19922;-75
2021/01/19 11:53:41;;;;;;;;;;;;;;;7.10;98.70;100293.84;5107923;27;20003;-75
2021/01/19 11:56:06;;;;;;;;;;;;;;;7.12;98.43;100285.28;5100319;28;19943;-75
2021/01/19 11:58:31;;;;;;;;;;;;;;;7.16;98.34;100283.63;5096349;28;19923;-75
2021/01/19 12:00:57;;;;;;;;;;;;;;;7.18;98.60;100277.81;5096988;28;19951;-75
2021/01/19 12:03:22;;;;;;;;;;;;;;;7.20;98.57;100265.38;5100412;28;19954;-75
2021/01/19 12:05:47;;;;;;;;;;;;;;;7.21;98.06;100268.97;5099016;28;19964;-75
2021/01/19 12:08:13;;;;;;;;;;;;;;;7.23;98.08;100273.13;5094460;28;19920;-75
2021/01/19 12:10:44;;;;;;;;;;;;;;;7.24;98.27;100268.41;5078015;28;20362;-75
2021/01/19 12:13:13;;;;;;;;;;;;;;;7.25;98.27;100261.81;5083409;28;19916;-75
2021/01/19 12:15:39;;;;;;;;;;;;;;;7.26;98.01;100255.16;5092630;28;20267;-75
2021/01/19 12:18:04;;;;;;;;;;;;;;;7.27;97.87;100235.56;5063302;28;19920;-75
2021/01/19 12:20:30;;;;;;;;;;;;;;;7.30;97.93;100220.31;5115752;28;19915;-75
2021/01/19 12:22:55;;;;;;;;;;;;;;;7.31;97.70;100214.53;5097144;28;19923;-76
2021/01/19 12:25:21;;;;;;;;;;;;;;;7.34;97.80;100221.44;5064034;28;19934;-76
2021/01/19 12:27:51;;;;;;;;;;;;;;;7.35;98.07;100220.31;5085680;28;19956;-76
2021/01/19 12:30:25;;;;;;;;;;;;;;;7.38;97.70;100212.31;5107039;28;19916;-75
2021/01/19 12:32:58;;;;;;;;;;;;;;;7.38;97.97;100200.41;5095671;28;19938;-76
2021/01/19 12:35:26;;;;;;;;;;;;;;;7.41;97.64;100202.66;5082443;28;19923;-75
2021/01/19 12:37:55;;;;;;;;;;;;;;;7.43;97.64;100205.13;5093803;28;19916;-75
2021/01/19 12:40:20;;;;;;;;;;;;;;;7.44;97.72;100198.47;5101769;28;19916;-75
2021/01/19 12:42:46;;;;;;;;;;;;;;;7.48;97.68;100196.81;5095041;28;19922;-75
2021/01/19 12:45:12;;;;;;;;;;;;;;;7.49;97.43;100198.47;5092161;28;19920;-75